Time;durP1;ratioP1;P1;durP2;ratioP2;P2;SDS_P1;SDS_P2;PMS_P1;PMS_P2;Temp;Humidity;BMP_temperature;BMP_pressure;BME280_temperature;BME280_humidity;BME280_pressure;Samples;Min_cycle;Max_cycle;Signal;HPM_P1;HPM_P2
2021/12/12 00:00:20;;;;;;;114.77;53.43;;;;;;;;;;5075623;28;20052;-69
2021/12/12 00:02:58;;;;;;;101.03;49.60;;;;;;;;;;5057210;28;20054;-69
2021/12/12 00:05:28;;;;;;;110.40;49.63;;;;;;;;;;5079874;28;20047;-69
2021/12/12 00:07:54;;;;;;;107.03;50.63;;;;;;;;;;5064557;28;20468;-69
2021/12/12 00:10:23;;;;;;;118.80;53.43;;;;;;;;;;5083090;28;20584;-69
2021/12/12 00:12:51;;;;;;;110.27;50.97;;;;;;;;;;5078097;28;20048;-68
2021/12/12 00:15:19;;;;;;;119.13;51.23;;;;;;;;;;5080301;28;20206;-69
2021/12/12 00:17:45;;;;;;;115.90;54.57;;;;;;;;;;5076276;28;20066;-69
2021/12/12 00:20:12;;;;;;;121.07;52.50;;;;;;;;;;5062317;28;20071;-69
2021/12/12 00:22:39;;;;;;;101.63;50.27;;;;;;;;;;5080759;28;20044;-69
2021/12/12 00:25:05;;;;;;;98.23;47.63;;;;;;;;;;5077645;28;20502;-69
2021/12/12 00:27:31;;;;;;;101.40;47.93;;;;;;;;;;5063355;28;20403;-69
2021/12/12 00:30:02;;;;;;;114.60;52.00;;;;;;;;;;5077455;28;20110;-69
2021/12/12 00:32:28;;;;;;;105.23;48.03;;;;;;;;;;5077279;28;20481;-68
2021/12/12 00:34:58;;;;;;;106.47;50.33;;;;;;;;;;5081061;28;20101;-69
2021/12/12 00:37:24;;;;;;;109.77;51.80;;;;;;;;;;5058880;28;20097;-69
2021/12/12 00:39:52;;;;;;;99.93;44.60;;;;;;;;;;5081557;28;20044;-68
2021/12/12 00:42:25;;;;;;;102.97;47.50;;;;;;;;;;5079265;28;20046;-69
2021/12/12 00:44:51;;;;;;;;;;;;;;;;;;5083895;28;20044;-68
2021/12/12 00:47:18;;;;;;;104.70;49.80;;;;;;;;;;5076697;28;20282;-68
2021/12/12 00:49:44;;;;;;;118.23;48.40;;;;;;;;;;5076466;28;20036;-69
2021/12/12 00:52:12;;;;;;;94.77;47.20;;;;;;;;;;5081036;28;20040;-68
2021/12/12 00:54:38;;;;;;;108.77;47.20;;;;;;;;;;5083226;28;20067;-69
2021/12/12 00:57:06;;;;;;;98.37;47.07;;;;;;;;;;5079124;28;20043;-69
2021/12/12 00:59:33;;;;;;;102.93;47.30;;;;;;;;;;5080086;28;20460;-69
2021/12/12 01:02:00;;;;;;;102.30;46.30;;;;;;;;;;5076253;28;20036;-69
2021/12/12 01:04:29;;;;;;;84.33;42.87;;;;;;;;;;5081468;28;20036;-68
2021/12/12 01:06:56;;;;;;;91.20;44.57;;;;;;;;;;5065121;28;20040;-69
2021/12/12 01:09:34;;;;;;;88.60;43.17;;;;;;;;;;5047890;28;20040;-69
2021/12/12 01:12:06;;;;;;;81.83;41.50;;;;;;;;;;5080226;28;20044;-69
2021/12/12 01:14:36;;;;;;;76.03;38.53;;;;;;;;;;5078705;28;20464;-68
2021/12/12 01:17:08;;;;;;;79.60;38.77;;;;;;;;;;5078099;28;20040;-69
2021/12/12 01:19:38;;;;;;;83.70;38.53;;;;;;;;;;5045203;28;20094;-69
2021/12/12 01:22:06;;;;;;;77.30;38.90;;;;;;;;;;5083328;28;20068;-69
2021/12/12 01:24:35;;;;;;;80.03;37.83;;;;;;;;;;5078866;28;20036;-68
2021/12/12 01:27:02;;;;;;;63.47;34.17;;;;;;;;;;5078103;28;20044;-69
2021/12/12 01:29:28;;;;;;;68.67;35.67;;;;;;;;;;5079051;28;20082;-69
2021/12/12 01:31:55;;;;;;;69.23;34.43;;;;;;;;;;5079249;28;20040;-69
2021/12/12 01:34:28;;;;;;;63.83;33.13;;;;;;;;;;5081185;28;20499;-69
2021/12/12 01:39:25;;;;;;;70.97;35.77;;;;;;;;;;5060169;28;20049;-70
2021/12/12 01:42:07;;;;;;;65.23;33.03;;;;;;;;;;5080564;28;20036;-70
2021/12/12 01:44:33;;;;;;;66.67;33.97;;;;;;;;;;5058133;28;20059;-70
2021/12/12 01:47:02;;;;;;;68.23;34.37;;;;;;;;;;5061290;28;20040;-70
2021/12/12 01:49:28;;;;;;;74.57;36.10;;;;;;;;;;5077148;28;20586;-70
2021/12/12 01:51:56;;;;;;;74.60;36.13;;;;;;;;;;5078584;28;20127;-70
2021/12/12 01:54:26;;;;;;;71.37;34.17;;;;;;;;;;5061315;28;20048;-70
2021/12/12 01:56:54;;;;;;;69.83;34.23;;;;;;;;;;5060543;28;20178;-70
2021/12/12 01:59:22;;;;;;;73.53;35.73;;;;;;;;;;5044360;28;20055;-71
2021/12/12 02:01:52;;;;;;;78.13;36.47;;;;;;;;;;5064919;28;20079;-70
2021/12/12 02:04:20;;;;;;;84.10;40.67;;;;;;;;;;5058642;28;20040;-70
2021/12/12 02:06:47;;;;;;;94.60;43.40;;;;;;;;;;5076730;28;20044;-69
2021/12/12 02:09:14;;;;;;;85.73;39.50;;;;;;;;;;5076634;28;20048;-69
2021/12/12 02:11:43;;;;;;;83.87;38.43;;;;;;;;;;5075851;28;20083;-69
2021/12/12 02:14:11;;;;;;;75.83;39.60;;;;;;;;;;5065908;28;20661;-69
2021/12/12 02:16:39;;;;;;;89.20;40.27;;;;;;;;;;5073467;28;20060;-69
2021/12/12 02:19:06;;;;;;;85.33;39.23;;;;;;;;;;5090689;28;20055;-69
2021/12/12 02:21:40;;;;;;;77.70;38.37;;;;;;;;;;5090636;28;20040;-69
2021/12/12 02:35:42;;;;;;;90.83;40.70;;;;;;;;;;5091683;28;20052;-70
2021/12/12 02:38:09;;;;;;;95.67;39.00;;;;;;;;;;5088443;28;20052;-69
2021/12/12 02:40:38;;;;;;;93.87;41.57;;;;;;;;;;5088572;28;20044;-69
2021/12/12 02:43:04;;;;;;;93.40;38.37;;;;;;;;;;5082455;28;20062;-69
2021/12/12 02:45:32;;;;;;;82.80;37.13;;;;;;;;;;5064215;28;20052;-69
2021/12/12 02:48:04;;;;;;;76.73;35.97;;;;;;;;;;5071507;28;20054;-69
2021/12/12 02:50:33;;;;;;;70.07;37.73;;;;;;;;;;5089590;28;20055;-70
2021/12/12 02:53:12;;;;;;;76.30;35.33;;;;;;;;;;5083134;28;20041;-69
2021/12/12 02:55:42;;;;;;;72.43;35.30;;;;;;;;;;5049510;28;20044;-69
2021/12/12 02:58:09;;;;;;;60.43;32.63;;;;;;;;;;5090956;28;20066;-70
2021/12/12 03:00:38;;;;;;;74.10;34.03;;;;;;;;;;5085319;28;20438;-69
2021/12/12 03:03:04;;;;;;;69.03;34.00;;;;;;;;;;5066577;28;20048;-70
2021/12/12 03:05:35;;;;;;;73.63;35.07;;;;;;;;;;5072771;28;20523;-69
2021/12/12 03:08:01;;;;;;;76.87;34.73;;;;;;;;;;5090134;28;20040;-69
2021/12/12 03:10:32;;;;;;;77.37;33.83;;;;;;;;;;5091187;28;20862;-69
2021/12/12 03:12:58;;;;;;;74.57;37.47;;;;;;;;;;5090654;28;20456;-69
2021/12/12 03:15:26;;;;;;;87.20;38.37;;;;;;;;;;5090041;28;20056;-69
2021/12/12 03:17:54;;;;;;;79.13;36.07;;;;;;;;;;5088852;28;20048;-70
2021/12/12 03:20:26;;;;;;;71.47;35.23;;;;;;;;;;5090510;28;20044;-69
2021/12/12 03:23:01;;;;;;;73.53;35.67;;;;;;;;;;5070686;28;20044;-69
2021/12/12 03:25:27;;;;;;;68.20;32.80;;;;;;;;;;5054525;28;20072;-69
2021/12/12 03:27:54;;;;;;;69.30;35.00;;;;;;;;;;5071203;28;20043;-69
2021/12/12 03:30:20;;;;;;;76.87;34.53;;;;;;;;;;5089774;28;20040;-69
2021/12/12 03:32:46;;;;;;;68.17;33.77;;;;;;;;;;5088339;28;20040;-69
2021/12/12 03:35:12;;;;;;;75.20;34.30;;;;;;;;;;5089497;28;20043;-69
2021/12/12 03:37:39;;;;;;;63.83;32.60;;;;;;;;;;5089162;28;20054;-69
2021/12/12 03:40:15;;;;;;;70.77;35.63;;;;;;;;;;5070282;28;20485;-69
2021/12/12 03:42:42;;;;;;;69.00;33.03;;;;;;;;;;5088417;28;20051;-68
2021/12/12 03:45:08;;;;;;;70.27;33.00;;;;;;;;;;5089189;28;20074;-69
2021/12/12 03:47:47;;;;;;;69.70;33.10;;;;;;;;;;5087833;28;20066;-69
2021/12/12 03:50:16;;;;;;;65.77;33.07;;;;;;;;;;5085967;28;21858;-69
2021/12/12 03:52:42;;;;;;;62.73;31.47;;;;;;;;;;5067696;28;20048;-69
2021/12/12 03:55:10;;;;;;;68.93;33.17;;;;;;;;;;5081342;28;20043;-68
2021/12/12 03:57:37;;;;;;;62.17;33.23;;;;;;;;;;5070829;28;20109;-68
2021/12/12 04:00:04;;;;;;;66.37;30.10;;;;;;;;;;5070758;28;20051;-69
2021/12/12 04:02:31;;;;;;;53.27;29.30;;;;;;;;;;5082319;28;20045;-69
2021/12/12 04:04:57;;;;;;;63.27;32.67;;;;;;;;;;5086685;28;20040;-69
2021/12/12 04:07:25;;;;;;;57.67;31.13;;;;;;;;;;5071125;28;20498;-69
2021/12/12 04:09:51;;;;;;;53.90;29.43;;;;;;;;;;5087760;28;20050;-68
2021/12/12 04:12:19;;;;;;;67.00;33.83;;;;;;;;;;5068398;28;20082;-69
2021/12/12 04:14:45;;;;;;;72.10;30.97;;;;;;;;;;5088067;28;20048;-68
2021/12/12 04:17:13;;;;;;;72.63;30.73;;;;;;;;;;5087855;28;20076;-69
2021/12/12 04:19:41;;;;;;;57.10;31.73;;;;;;;;;;5087570;28;20067;-68
2021/12/12 04:22:07;;;;;;;74.57;34.00;;;;;;;;;;5087476;28;20046;-68
2021/12/12 04:24:35;;;;;;;57.33;29.13;;;;;;;;;;5051806;28;20048;-68
2021/12/12 04:27:02;;;;;;;53.30;31.07;;;;;;;;;;5087138;28;20119;-68
2021/12/12 04:29:32;;;;;;;60.60;31.17;;;;;;;;;;5084379;28;20052;-68
2021/12/12 04:31:59;;;;;;;52.70;28.90;;;;;;;;;;5081638;28;20044;-68
2021/12/12 04:34:28;;;;;;;65.07;31.80;;;;;;;;;;5085274;28;20414;-68
2021/12/12 04:36:55;;;;;;;58.53;30.87;;;;;;;;;;5083173;28;20040;-68
2021/12/12 04:39:25;;;;;;;73.60;33.27;;;;;;;;;;5085727;28;20490;-68
2021/12/12 04:41:52;;;;;;;62.27;31.03;;;;;;;;;;5080083;28;20055;-68
2021/12/12 04:44:23;;;;;;;44.17;28.07;;;;;;;;;;5064296;28;20484;-69
2021/12/12 04:49:56;;;;;;;48.23;27.93;;;;;;;;;;5079035;28;20044;-69
2021/12/12 04:52:28;;;;;;;52.53;27.50;;;;;;;;;;5086604;28;20563;-69
2021/12/12 04:54:59;;;;;;;51.70;26.50;;;;;;;;;;5083594;28;20101;-69
2021/12/12 04:57:28;;;;;;;56.97;28.47;;;;;;;;;;5079364;28;20065;-69
2021/12/12 04:59:58;;;;;;;48.43;24.70;;;;;;;;;;5079089;28;20555;-68
2021/12/12 05:02:32;;;;;;;52.90;27.20;;;;;;;;;;5082846;28;20040;-69
2021/12/12 05:05:12;;;;;;;45.93;25.20;;;;;;;;;;5068891;28;20116;-69
2021/12/12 05:07:58;;;;;;;49.57;27.00;;;;;;;;;;5083507;28;20047;-69
2021/12/12 05:10:24;;;;;;;55.37;28.10;;;;;;;;;;5083418;28;20105;-69
2021/12/12 05:12:59;;;;;;;56.40;27.37;;;;;;;;;;5063689;28;20036;-68
2021/12/12 05:15:25;;;;;;;39.83;22.97;;;;;;;;;;5063124;28;20059;-69
2021/12/12 05:17:58;;;;;;;55.67;26.63;;;;;;;;;;5079435;28;20052;-69
2021/12/12 05:20:30;;;;;;;40.80;23.00;;;;;;;;;;5086605;28;20059;-69
2021/12/12 05:22:59;;;;;;;35.53;22.17;;;;;;;;;;5066370;28;20060;-69
2021/12/12 05:25:26;;;;;;;39.47;21.50;;;;;;;;;;5063729;28;20044;-68
2021/12/12 05:27:54;;;;;;;33.63;21.57;;;;;;;;;;5081115;28;20039;-68
2021/12/12 05:30:26;;;;;;;36.73;20.27;;;;;;;;;;5063589;28;20526;-68
2021/12/12 05:32:53;;;;;;;28.40;19.10;;;;;;;;;;5077339;28;20040;-68
2021/12/12 05:35:20;;;;;;;34.63;20.20;;;;;;;;;;5068724;28;20070;-68
2021/12/12 05:37:47;;;;;;;33.60;20.43;;;;;;;;;;5084736;28;20036;-68
2021/12/12 05:40:13;;;;;;;33.03;19.10;;;;;;;;;;5086573;28;20082;-68
2021/12/12 05:42:40;;;;;;;33.27;19.43;;;;;;;;;;5086622;28;20044;-68
2021/12/12 05:45:07;;;;;;;41.50;20.83;;;;;;;;;;5082500;28;20850;-68
2021/12/12 05:47:33;;;;;;;30.67;19.07;;;;;;;;;;5070235;28;20851;-68
2021/12/12 05:50:00;;;;;;;37.17;21.87;;;;;;;;;;5090624;28;20039;-68
2021/12/12 05:52:26;;;;;;;33.33;20.73;;;;;;;;;;5071777;28;20048;-68
2021/12/12 05:54:53;;;;;;;42.47;22.33;;;;;;;;;;5071192;28;20455;-68
2021/12/12 05:57:24;;;;;;;39.23;21.77;;;;;;;;;;5068126;28;20491;-68
2021/12/12 05:59:50;;;;;;;31.47;20.00;;;;;;;;;;5055598;28;20551;-68
2021/12/12 06:02:16;;;;;;;39.60;21.50;;;;;;;;;;5087359;28;20070;-69
2021/12/12 06:04:42;;;;;;;41.73;22.23;;;;;;;;;;5071813;28;20047;-68
2021/12/12 06:07:11;;;;;;;41.87;21.93;;;;;;;;;;5065441;28;20113;-68
2021/12/12 06:09:37;;;;;;;36.90;21.23;;;;;;;;;;5067621;28;20044;-68
2021/12/12 06:12:04;;;;;;;44.90;23.23;;;;;;;;;;5090700;28;20032;-68
2021/12/12 06:14:31;;;;;;;59.20;25.10;;;;;;;;;;5086702;28;20051;-68
2021/12/12 06:17:00;;;;;;;49.90;23.83;;;;;;;;;;5071980;28;20059;-68
2021/12/12 06:19:27;;;;;;;45.93;22.97;;;;;;;;;;5071975;28;20052;-68
2021/12/12 06:21:55;;;;;;;41.93;25.87;;;;;;;;;;5070851;28;20402;-68
2021/12/12 06:24:21;;;;;;;57.40;25.07;;;;;;;;;;5090095;28;20036;-68
2021/12/12 06:26:48;;;;;;;49.33;23.80;;;;;;;;;;5072041;28;20038;-68
2021/12/12 06:29:14;;;;;;;53.73;26.47;;;;;;;;;;5090232;28;20089;-68
2021/12/12 06:31:42;;;;;;;43.37;23.63;;;;;;;;;;5083715;28;20658;-68
2021/12/12 06:34:09;;;;;;;48.23;23.87;;;;;;;;;;5089064;28;20418;-68
2021/12/12 06:36:38;;;;;;;42.23;25.27;;;;;;;;;;5088452;28;20450;-68
2021/12/12 06:39:06;;;;;;;44.33;24.63;;;;;;;;;;5068413;28;20192;-68
2021/12/12 06:41:32;;;;;;;45.43;23.83;;;;;;;;;;5084074;28;20627;-68
2021/12/12 06:43:58;;;;;;;42.83;24.93;;;;;;;;;;5090075;28;20036;-68
2021/12/12 06:46:25;;;;;;;50.73;26.70;;;;;;;;;;5090394;28;20044;-68
2021/12/12 06:48:52;;;;;;;51.50;24.80;;;;;;;;;;5070949;28;20114;-69
2021/12/12 06:51:18;;;;;;;50.67;24.93;;;;;;;;;;5089266;28;20429;-69
2021/12/12 06:53:45;;;;;;;51.43;25.30;;;;;;;;;;5088635;28;20174;-68
2021/12/12 06:56:15;;;;;;;55.80;27.07;;;;;;;;;;5071540;28;20600;-68
2021/12/12 06:58:41;;;;;;;56.23;26.40;;;;;;;;;;5071424;28;20079;-69
2021/12/12 07:01:11;;;;;;;68.80;27.67;;;;;;;;;;5064590;28;20063;-68
2021/12/12 07:03:39;;;;;;;70.43;27.20;;;;;;;;;;5069512;28;20057;-69
2021/12/12 07:06:05;;;;;;;55.20;27.37;;;;;;;;;;5088463;28;20056;-68
2021/12/12 07:08:32;;;;;;;55.60;28.53;;;;;;;;;;5063369;28;20097;-68
2021/12/12 07:10:58;;;;;;;60.70;28.43;;;;;;;;;;5089085;28;20045;-69
2021/12/12 07:13:25;;;;;;;57.90;27.17;;;;;;;;;;5071603;28;20036;-69
2021/12/12 07:15:53;;;;;;;59.43;27.63;;;;;;;;;;5050556;28;20795;-69
2021/12/12 07:18:21;;;;;;;70.27;28.43;;;;;;;;;;5067955;28;20052;-68
2021/12/12 07:20:50;;;;;;;48.50;25.43;;;;;;;;;;5069025;28;20517;-68
2021/12/12 07:23:16;;;;;;;77.23;29.30;;;;;;;;;;5066786;28;20114;-69
2021/12/12 07:25:43;;;;;;;62.37;26.93;;;;;;;;;;5067900;28;20045;-69
2021/12/12 07:28:09;;;;;;;59.17;26.67;;;;;;;;;;5067044;28;20663;-68
2021/12/12 07:30:35;;;;;;;60.47;26.83;;;;;;;;;;5068171;28;20171;-69
2021/12/12 07:33:05;;;;;;;58.47;27.23;;;;;;;;;;5067598;28;20048;-69
2021/12/12 07:35:35;;;;;;;58.53;27.33;;;;;;;;;;5065648;28;20048;-69
2021/12/12 07:38:01;;;;;;;75.07;28.67;;;;;;;;;;5065445;28;20032;-69
2021/12/12 07:40:28;;;;;;;78.00;30.07;;;;;;;;;;5067705;28;20040;-68
2021/12/12 07:42:54;;;;;;;71.30;28.87;;;;;;;;;;5067259;28;20040;-68
2021/12/12 07:45:21;;;;;;;93.13;33.87;;;;;;;;;;5067860;28;20463;-69
2021/12/12 07:47:47;;;;;;;65.07;28.53;;;;;;;;;;5060402;28;20112;-69
2021/12/12 07:50:14;;;;;;;79.87;30.73;;;;;;;;;;5067792;28;20402;-69
2021/12/12 07:52:41;;;;;;;66.53;27.67;;;;;;;;;;5065877;28;20044;-68
2021/12/12 07:55:07;;;;;;;79.43;30.90;;;;;;;;;;5062371;28;20044;-68
2021/12/12 07:57:33;;;;;;;68.07;29.47;;;;;;;;;;5067091;28;20040;-68
2021/12/12 08:00:00;;;;;;;75.93;29.17;;;;;;;;;;5061609;28;20044;-69
2021/12/12 08:02:27;;;;;;;74.50;30.30;;;;;;;;;;5065814;28;20138;-69
2021/12/12 08:04:54;;;;;;;66.03;28.60;;;;;;;;;;5066518;28;20047;-69
2021/12/12 08:07:21;;;;;;;3.30;1.10;;;;;;;;;;5067782;28;20441;-69
2021/12/12 08:09:48;;;;;;;0.93;0.63;;;;;;;;;;5065536;28;20402;-69
2021/12/12 08:12:16;;;;;;;0.63;0.63;;;;;;;;;;5063427;28;20051;-69
2021/12/12 08:14:42;;;;;;;1.60;1.17;;;;;;;;;;5065488;28;20052;-69
2021/12/12 08:17:10;;;;;;;1.93;1.20;;;;;;;;;;5087120;28;20368;-69
2021/12/12 08:19:37;;;;;;;0.20;0.20;;;;;;;;;;5087313;28;20520;-69
2021/12/12 08:22:08;;;;;;;0.10;0.10;;;;;;;;;;5084115;28;20044;-69
2021/12/12 08:24:35;;;;;;;0.90;0.90;;;;;;;;;;5087651;28;20055;-68
2021/12/12 08:27:03;;;;;;;0.57;0.57;;;;;;;;;;5086940;28;20047;-69
2021/12/12 08:29:30;;;;;;;0.73;0.40;;;;;;;;;;5086682;28;20044;-69
2021/12/12 08:31:56;;;;;;;0.40;0.40;;;;;;;;;;5087982;28;20054;-68
2021/12/12 08:34:22;;;;;;;0.20;0.20;;;;;;;;;;5060306;28;20047;-69
2021/12/12 08:36:49;;;;;;;0.40;0.40;;;;;;;;;;5086384;28;20487;-69
2021/12/12 08:39:16;;;;;;;0.33;0.33;;;;;;;;;;5086476;28;20516;-69
2021/12/12 08:41:43;;;;;;;1.33;0.60;;;;;;;;;;5069170;28;20044;-69
2021/12/12 08:44:10;;;;;;;2.30;2.10;;;;;;;;;;5068931;28;20047;-70
2021/12/12 08:46:38;;;;;;;0.47;0.47;;;;;;;;;;5087303;28;20080;-69
2021/12/12 08:49:04;;;;;;;1.40;0.80;;;;;;;;;;5085830;28;20555;-69
2021/12/12 08:51:34;;;;;;;0.70;0.70;;;;;;;;;;5061763;28;20040;-69
2021/12/12 08:54:02;;;;;;;0.40;0.40;;;;;;;;;;5086052;28;20463;-69
2021/12/12 08:56:42;;;;;;;0.20;0.20;;;;;;;;;;5083813;28;20077;-69
2021/12/12 08:59:09;;;;;;;1.17;1.07;;;;;;;;;;5083694;28;20036;-68
2021/12/12 09:01:37;;;;;;;0.60;0.60;;;;;;;;;;5086211;28;20039;-69
2021/12/12 09:04:04;;;;;;;0.37;0.37;;;;;;;;;;5068443;28;20047;-69
2021/12/12 09:06:36;;;;;;;1.20;0.33;;;;;;;;;;5061606;28;20048;-69
2021/12/12 09:09:08;;;;;;;0.70;0.70;;;;;;;;;;5068833;28;20109;-68
2021/12/12 09:11:45;;;;;;;1.93;0.50;;;;;;;;;;5068190;28;20532;-69
2021/12/12 09:14:21;;;;;;;0.30;0.30;;;;;;;;;;5085932;28;20051;-68
2021/12/12 09:16:55;;;;;;;0.63;0.60;;;;;;;;;;5068996;28;20561;-69
2021/12/12 09:19:28;;;;;;;0.10;0.10;;;;;;;;;;5061839;28;20059;-68
2021/12/12 09:22:10;;;;;;;0.55;0.55;;;;;;;;;;5087350;28;20048;-68
2021/12/12 09:24:44;;;;;;;1.23;1.13;;;;;;;;;;5071287;28;20044;-69
2021/12/12 09:27:13;;;;;;;0.40;0.40;;;;;;;;;;5085792;28;20044;-69
2021/12/12 09:29:52;;;;;;;1.07;0.87;;;;;;;;;;5071312;28;20851;-69
2021/12/12 09:32:22;;;;;;;3.83;1.17;;;;;;;;;;5084218;28;20040;-68
2021/12/12 09:35:00;;;;;;;0.47;0.47;;;;;;;;;;5089027;28;20055;-68
2021/12/12 09:37:35;;;;;;;0.10;0.10;;;;;;;;;;5089947;28;20090;-69
2021/12/12 09:40:09;;;;;;;3.10;0.30;;;;;;;;;;5066465;28;20070;-69
2021/12/12 09:42:49;;;;;;;0.57;0.53;;;;;;;;;;5089305;28;20047;-69
2021/12/12 09:45:35;;;;;;;1.33;0.53;;;;;;;;;;5085957;28;20118;-68
2021/12/12 09:53:43;;;;;;;0.43;0.43;;;;;;;;;;5065048;28;20507;-68
2021/12/12 09:56:27;;;;;;;0.30;0.30;;;;;;;;;;5087237;28;20043;-69
2021/12/12 09:58:59;;;;;;;0.60;0.60;;;;;;;;;;5086654;28;20080;-69
2021/12/12 10:01:34;;;;;;;0.40;0.40;;;;;;;;;;5085820;28;20036;-69
2021/12/12 10:04:24;;;;;;;0.50;0.50;;;;;;;;;;5088771;28;20121;-69
2021/12/12 10:06:58;;;;;;;1.73;0.47;;;;;;;;;;5051481;28;20069;-69
2021/12/12 10:09:29;;;;;;;0.90;0.90;;;;;;;;;;5071944;28;20514;-69
2021/12/12 10:12:00;;;;;;;4.57;1.77;;;;;;;;;;5085150;28;20045;-69
2021/12/12 10:14:32;;;;;;;0.67;0.67;;;;;;;;;;5070987;28;20869;-68
2021/12/12 10:17:18;;;;;;;0.73;0.67;;;;;;;;;;5070181;28;20052;-69
2021/12/12 10:19:44;;;;;;;1.30;0.90;;;;;;;;;;5069648;28;20094;-69
2021/12/12 10:22:16;;;;;;;0.47;0.47;;;;;;;;;;5068815;28;20439;-68
2021/12/12 10:24:51;;;;;;;0.40;0.27;;;;;;;;;;5069879;28;20146;-69
2021/12/12 10:27:34;;;;;;;0.53;0.53;;;;;;;;;;5066928;28;20447;-69
2021/12/12 10:30:00;;;;;;;1.67;1.58;;;;;;;;;;5084325;28;20555;-68
2021/12/12 10:32:32;;;;;;;0.87;0.87;;;;;;;;;;5071084;28;20048;-69
2021/12/12 10:35:01;;;;;;;1.13;0.97;;;;;;;;;;5088548;28;20102;-70
2021/12/12 10:37:29;;;;;;;0.10;0.10;;;;;;;;;;5089628;28;20395;-69
2021/12/12 10:40:01;;;;;;;0.87;0.70;;;;;;;;;;5070423;28;20051;-68
2021/12/12 10:42:30;;;;;;;0.80;0.80;;;;;;;;;;5081394;28;20131;-69
2021/12/12 10:44:59;;;;;;;0.40;0.40;;;;;;;;;;5070189;28;20501;-69
2021/12/12 10:47:32;;;;;;;0.37;0.37;;;;;;;;;;5069184;28;20044;-69
2021/12/12 10:50:17;;;;;;;0.57;0.57;;;;;;;;;;5068392;28;20402;-70
2021/12/12 10:52:46;;;;;;;0.20;0.20;;;;;;;;;;5063575;28;20052;-68
2021/12/12 10:55:18;;;;;;;0.20;0.20;;;;;;;;;;5079751;28;20447;-68
2021/12/12 10:57:50;;;;;;;1.60;1.50;;;;;;;;;;5081913;28;20303;-68
2021/12/12 11:00:18;;;;;;;0.57;0.57;;;;;;;;;;5065353;28;20439;-69
2021/12/12 11:02:50;;;;;;;0.33;0.33;;;;;;;;;;5087334;28;20047;-69
2021/12/12 11:05:19;;;;;;;0.63;0.63;;;;;;;;;;5068946;28;20561;-68
2021/12/12 11:07:51;;;;;;;0.30;0.30;;;;;;;;;;5082241;28;20039;-69
2021/12/12 11:10:17;;;;;;;0.87;0.57;;;;;;;;;;5082824;28;20048;-69
2021/12/12 11:13:03;;;;;;;2.03;0.77;;;;;;;;;;5082484;28;20064;-68
2021/12/12 11:15:35;;;;;;;1.67;0.70;;;;;;;;;;5029204;28;1058121;-69
2021/12/12 11:18:05;;;;;;;0.10;0.10;;;;;;;;;;5083561;28;20537;-68
2021/12/12 11:20:38;;;;;;;0.23;0.23;;;;;;;;;;5066442;28;20652;-68
2021/12/12 11:23:16;;;;;;;0.47;0.40;;;;;;;;;;5085998;28;20079;-68
2021/12/12 11:25:44;;;;;;;0.57;0.53;;;;;;;;;;5064996;28;21456;-68
2021/12/12 11:28:13;;;;;;;0.47;0.47;;;;;;;;;;5067569;28;20059;-68
2021/12/12 11:30:41;;;;;;;0.67;0.67;;;;;;;;;;5066793;28;20573;-68
2021/12/12 11:33:10;;;;;;;0.50;0.50;;;;;;;;;;5066797;28;20048;-68
2021/12/12 11:35:38;;;;;;;0.37;0.37;;;;;;;;;;5066387;28;20135;-68
2021/12/12 11:38:09;;;;;;;3.00;1.47;;;;;;;;;;5066425;28;20085;-68
2021/12/12 11:40:42;;;;;;;0.20;0.20;;;;;;;;;;5083508;28;20044;-69
2021/12/12 11:43:11;;;;;;;0.40;0.40;;;;;;;;;;5084020;28;20407;-69
2021/12/12 11:45:40;;;;;;;0.33;0.33;;;;;;;;;;5068013;28;20048;-68
2021/12/12 11:48:25;;;;;;;0.87;0.87;;;;;;;;;;5087910;28;20167;-69
2021/12/12 11:50:59;;;;;;;2.27;2.03;;;;;;;;;;5075184;28;20044;-69
2021/12/12 11:53:30;;;;;;;0.97;0.67;;;;;;;;;;5086141;28;20414;-69
2021/12/12 11:56:01;;;;;;;0.83;0.83;;;;;;;;;;5088185;28;20043;-68
2021/12/12 11:58:51;;;;;;;2.97;1.00;;;;;;;;;;5087663;28;20047;-68
2021/12/12 12:01:27;;;;;;;0.60;0.60;;;;;;;;;;5077351;28;20132;-69
2021/12/12 12:03:53;;;;;;;0.20;0.20;;;;;;;;;;5069299;28;20440;-68
2021/12/12 12:06:38;;;;;;;0.50;0.50;;;;;;;;;;5086937;28;20058;-68
2021/12/12 12:09:18;;;;;;;0.10;0.10;;;;;;;;;;5060571;28;20048;-69
2021/12/12 12:12:00;;;;;;;0.10;0.10;;;;;;;;;;5085628;28;20051;-69
2021/12/12 12:14:35;;;;;;;1.80;0.20;;;;;;;;;;5078074;28;20055;-68
2021/12/12 12:17:14;;;;;;;0.67;0.53;;;;;;;;;;5069859;28;20044;-69
2021/12/12 12:19:59;;;;;;;0.20;0.20;;;;;;;;;;5051719;28;20036;-69
2021/12/12 12:22:37;;;;;;;0.30;0.30;;;;;;;;;;5069134;28;20059;-68
2021/12/12 12:25:16;;;;;;;0.40;0.40;;;;;;;;;;5064614;28;20047;-68
2021/12/12 12:27:53;;;;;;;0.50;0.50;;;;;;;;;;5086004;28;20078;-68
2021/12/12 12:30:31;;;;;;;2.80;0.87;;;;;;;;;;5087986;28;20048;-68
2021/12/12 12:33:13;;;;;;;0.33;0.33;;;;;;;;;;5069388;28;20048;-69
2021/12/12 12:35:58;;;;;;;0.30;0.30;;;;;;;;;;5069081;28;20056;-69
2021/12/12 12:38:42;;;;;;;1.63;1.53;;;;;;;;;;5063095;28;20056;-68
2021/12/12 12:41:27;;;;;;;0.93;0.93;;;;;;;;;;5070554;28;20055;-68
2021/12/12 12:44:12;;;;;;;0.57;0.57;;;;;;;;;;5054078;28;20101;-69
2021/12/12 12:46:38;;;;;;;2.07;0.47;;;;;;;;;;5069426;28;20067;-69
2021/12/12 12:49:07;;;;;;;0.67;0.60;;;;;;;;;;5070934;28;20494;-69
2021/12/12 12:52:04;;;;;;;0.20;0.20;;;;;;;;;;5087735;28;20044;-69
2021/12/12 12:54:31;;;;;;;0.13;0.13;;;;;;;;;;5058288;28;20058;-69
2021/12/12 12:57:19;;;;;;;2.17;1.37;;;;;;;;;;5070383;28;20052;-69
2021/12/12 12:59:55;;;;;;;0.30;0.30;;;;;;;;;;5087809;28;20074;-69
2021/12/12 13:02:25;;;;;;;1.13;1.07;;;;;;;;;;5083287;28;20584;-69
2021/12/12 13:04:58;;;;;;;0.17;0.17;;;;;;;;;;5080000;28;20062;-69
2021/12/12 13:07:43;;;;;;;0.35;0.35;;;;;;;;;;5063042;28;20055;-69
2021/12/12 13:10:15;;;;;;;0.20;0.20;;;;;;;;;;5062331;28;20044;-69
2021/12/12 13:12:48;;;;;;;0.30;0.30;;;;;;;;;;5067890;28;20121;-69
2021/12/12 13:15:33;;;;;;;0.50;0.50;;;;;;;;;;5063248;28;20048;-69
2021/12/12 13:18:08;;;;;;;0.20;0.20;;;;;;;;;;5088226;28;20055;-69
2021/12/12 13:20:34;;;;;;;2.17;1.60;;;;;;;;;;5069388;28;20059;-69
2021/12/12 13:23:03;;;;;;;1.17;1.17;;;;;;;;;;5069258;28;20052;-69
2021/12/12 13:25:35;;;;;;;0.57;0.40;;;;;;;;;;5062969;28;20138;-69
2021/12/12 13:28:10;;;;;;;0.87;0.80;;;;;;;;;;5087647;28;20132;-69
2021/12/12 13:30:59;;;;;;;0.40;0.40;;;;;;;;;;5088492;28;20055;-69
2021/12/12 13:33:44;;;;;;;0.30;0.30;;;;;;;;;;5073144;28;20044;-69
2021/12/12 13:36:29;;;;;;;1.43;1.33;;;;;;;;;;5084407;28;20059;-69
2021/12/12 13:39:07;;;;;;;3.23;1.60;;;;;;;;;;5070268;28;20062;-68
2021/12/12 13:41:40;;;;;;;3.60;0.93;;;;;;;;;;5077602;28;20048;-69
2021/12/12 13:44:21;;;;;;;0.40;0.40;;;;;;;;;;5058908;28;20127;-69
2021/12/12 13:47:06;;;;;;;1.13;0.93;;;;;;;;;;5069167;28;20052;-69
2021/12/12 13:49:39;;;;;;;0.87;0.87;;;;;;;;;;5087980;28;20422;-69
2021/12/12 13:52:28;;;;;;;2.38;1.13;;;;;;;;;;5069207;28;20043;-69
2021/12/12 13:54:54;;;;;;;1.90;0.97;;;;;;;;;;5084869;28;20032;-68
2021/12/12 13:57:25;;;;;;;1.13;0.43;;;;;;;;;;5082184;28;20623;-69
2021/12/12 14:00:03;;;;;;;2.13;1.07;;;;;;;;;;5065732;28;20048;-69
2021/12/12 14:02:30;;;;;;;2.50;1.30;;;;;;;;;;5065089;28;20040;-69
2021/12/12 14:05:02;;;;;;;0.43;0.43;;;;;;;;;;5069999;28;20048;-69
2021/12/12 14:07:33;;;;;;;0.20;0.20;;;;;;;;;;5067154;28;20503;-69
2021/12/12 14:10:01;;;;;;;1.33;0.70;;;;;;;;;;5067605;28;20477;-69
2021/12/12 14:12:30;;;;;;;1.87;1.07;;;;;;;;;;5069719;28;20491;-69
2021/12/12 14:15:00;;;;;;;0.93;0.93;;;;;;;;;;5086102;28;20059;-69
2021/12/12 14:17:40;;;;;;;0.67;0.33;;;;;;;;;;5087246;28;20089;-69
2021/12/12 14:20:09;;;;;;;0.20;0.20;;;;;;;;;;5072938;28;20039;-69
2021/12/12 14:22:36;;;;;;;0.23;0.23;;;;;;;;;;5069532;28;20044;-69
2021/12/12 14:25:03;;;;;;;1.40;1.30;;;;;;;;;;5087571;28;20108;-69
2021/12/12 14:27:30;;;;;;;0.40;0.40;;;;;;;;;;5081175;28;20058;-68
2021/12/12 14:29:56;;;;;;;2.30;0.93;;;;;;;;;;5068140;28;20374;-69
2021/12/12 14:32:26;;;;;;;0.87;0.80;;;;;;;;;;5087367;28;20044;-68
2021/12/12 14:35:08;;;;;;;0.40;0.40;;;;;;;;;;5065395;28;20052;-68
2021/12/12 14:37:35;;;;;;;0.83;0.83;;;;;;;;;;5089137;28;20044;-69
2021/12/12 14:40:10;;;;;;;0.73;0.60;;;;;;;;;;5072725;28;20047;-69
2021/12/12 14:42:38;;;;;;;0.70;0.67;;;;;;;;;;5090387;28;20044;-69
2021/12/12 14:45:14;;;;;;;0.33;0.33;;;;;;;;;;5090586;28;20075;-69
2021/12/12 14:47:42;;;;;;;0.47;0.43;;;;;;;;;;5071947;28;20494;-69
2021/12/12 14:50:20;;;;;;;0.93;0.87;;;;;;;;;;5065503;28;20036;-69
2021/12/12 14:52:48;;;;;;;0.70;0.63;;;;;;;;;;5070902;28;20174;-68
2021/12/12 14:55:19;;;;;;;0.50;0.40;;;;;;;;;;5088055;28;20048;-69
2021/12/12 14:57:47;;;;;;;0.83;0.83;;;;;;;;;;5089074;28;20051;-68
2021/12/12 15:00:16;;;;;;;0.20;0.20;;;;;;;;;;5087599;28;20096;-68
2021/12/12 15:02:53;;;;;;;0.70;0.57;;;;;;;;;;5087900;28;20414;-69
2021/12/12 15:05:25;;;;;;;0.83;0.30;;;;;;;;;;5087541;28;20150;-68
2021/12/12 15:07:53;;;;;;;0.97;0.53;;;;;;;;;;5088065;28;20532;-69
2021/12/12 15:10:22;;;;;;;0.10;0.10;;;;;;;;;;5063822;28;20650;-68